Indianapolis Executive (TYQ)

 

Airport Diagram
No Airport Diagram Available
Current Weather/Forecast (IFR Conditions)
METAR KTYQ 191435Z AUTO 04009KT 10SM OVC006 07/06 A3018 RMK AO2 T00670056
TAF

Airport Information

All Charts
General
Chart Name View
TAKEOFF MINIMUMS
ALTERNATE MINIMUMS
TAKEOFF MINIMUMS
ALTERNATE MINIMUMS

Departures
Chart Name Download
DAWNN ONE
DAWNN ONE, CONT.1
HOOSIER FIVE
MAREO FIVE
MEARZ SIX
ROCKY ONE
DAWNN ONE
DAWNN ONE, CONT.1
HOOSIER FIVE
MAREO FIVE
MEARZ SIX
ROCKY ONE

Arrivals
Chart Name Download
RACYR FIVE
RACYR FIVE

Approaches
Chart Name Download
ILS OR LOC RWY 36
RNAV (GPS) RWY 18
RNAV (GPS) RWY 36
VOR RWY 18
ILS OR LOC RWY 36
RNAV (GPS) RWY 18
RNAV (GPS) RWY 36
VOR RWY 18


Airport Statistics
Departures Arrivals Local
All Collected Stats since June 2016: 106 75 3
2020 Stats: 53 43 1
October Stats: 1 3 0

Inbound Traffic (Arrivals) - 0

No inbound traffic.


Outbound Traffic (Departures) - 0

No outbound traffic.


Local Traffic (Pattern) - 0

No local traffic.